• Join FlightAware (Why Join?)
  • Login
  • US Flag 
07:09AM EDT


 

Airport Tracker/Info


-or-


 

Live Flight TrackerFlight Track Log ✈ DAL571 ✈ 25-Apr-2014 ✈ KATL - TIST / STT

Flight Track Log - Related Links

Times and Time Zones

All times are in EDT time to prevent confusion due to time zone crossing. See the DAL571 flight status page for this flight to view local times or setup timezone preferences in your user account.

Time Position Orientation Groundspeed Altitude Reporting Facility
EDT Latitude Longitude Course Direction KTS MPH feet Rate Location/Type
10:18AM 33.5833 -84.5667 145° Southeast 241 277 6,200  Level Atlanta TRACON
10:19AM 33.3448 -84.2281 140° Southeast  Level FlightAware Approximate
10:19AM 33.4611 -84.5867 188° South 280 322 9,900  Level Atlanta Center
10:20AM 33.2423 -84.1254 140° Southeast  Level FlightAware Approximate
10:20AM 33.4011 -84.4967 129° Southeast 348 400 10,600  Level Atlanta Center
10:21AM 33.1398 -84.0230 140° Southeast  Level FlightAware Approximate
10:21AM 33.3386 -84.3944 126° Southeast 391 450 12,500  Level Atlanta Center
10:22AM 33.0388 -83.9294 145° Southeast  Level FlightAware Approximate
10:22AM 33.2722 -84.2797 125° Southeast 411 473 14,900  Level Atlanta Center
10:23AM 32.9329 -83.8409 145° Southeast  Level FlightAware Approximate
10:23AM 33.1992 -84.1728 129° Southeast 420 483 17,300  Level Atlanta Center
10:24AM 33.1264 -84.0439 124° Southeast 439 505 19,400 2,040 Climbing Atlanta Center
10:25AM 33.0364 -83.9372 135° Southeast 450 518 21,400 1,800 Climbing Atlanta Center
10:26AM 32.9319 -83.8508 145° Southeast 457 526 23,100 1,620 Climbing Atlanta Center
10:27AM 32.8169 -83.7544 145° Southeast 464 534 24,700 1,500 Climbing Atlanta Center
10:28AM 32.7042 -83.6586 144° Southeast 476 548 26,200 1,080 Climbing Atlanta Center
10:29AM 32.5953 -83.5531 141° Southeast 487 560 26,900 300 Climbing Atlanta Center
10:30AM 32.4925 -83.4528 141° Southeast 492 566 26,900  Level Atlanta Center
10:31AM 32.3856 -83.3453 140° Southeast 499 574 27,000 780 Climbing Atlanta Center
10:33AM 32.2600 -83.2144 139° Southeast 528 608 28,800 1,440 Climbing Jacksonville Center
10:34AM 32.1517 -83.1108 141° Southeast 516 594 30,400 1,500 Climbing Jacksonville Center
10:35AM 32.0475 -83.0078 140° Southeast 505 581 31,900 1,440 Climbing Jacksonville Center
10:36AM 31.9431 -82.9047 140° Southeast 498 573 33,300 1,320 Climbing Jacksonville Center
10:37AM 31.8408 -82.8044 140° Southeast 491 565 34,600 1,440 Climbing Jacksonville Center
10:38AM 31.7300 -82.7142 145° Southeast 491 565 36,200 1,200 Climbing Jacksonville Center
10:39AM 31.6172 -82.6364 150° Southeast 474 545 37,100 660 Climbing Jacksonville Center
10:40AM 31.5064 -82.5586 149° Southeast 469 540 37,600 360 Climbing Jacksonville Center
10:41AM 31.3911 -82.4764 149° Southeast 469 540 37,900 120 Climbing Jacksonville Center
10:42AM 31.2636 -82.3967 152° Southeast 469 540 37,900  Level Jacksonville Center
10:44AM 31.0333 -82.2428 150° Southeast 481 554 37,900  Level Jacksonville Center
10:45AM 30.9158 -82.1686 152° Southeast 481 554 37,900  Level Jacksonville Center
10:46AM 30.8006 -82.0897 150° Southeast 481 554 37,900  Level Jacksonville Center
10:47AM 30.6894 -82.0156 150° Southeast 476 548 37,900  Level Jacksonville Center
10:48AM 30.5761 -81.9394 150° Southeast 470 541 37,900  Level Jacksonville Center
10:49AM 30.4628 -81.8611 149° Southeast 470 541 37,900  Level Jacksonville Center
10:50AM 30.3453 -81.7831 150° Southeast 470 541 37,900  Level Jacksonville Center
10:51AM 30.2403 -81.7169 151° Southeast 473 544 37,900  Level Jacksonville Center
10:52AM 30.1267 -81.6439 151° Southeast 473 544 37,900  Level Jacksonville Center
10:53AM 30.0133 -81.5733 152° Southeast 473 544 37,900  Level Jacksonville Center
10:54AM 29.9019 -81.5006 150° Southeast 468 539 37,900  Level Jacksonville Center
10:56AM 29.6694 -81.3494 151° Southeast 468 539 37,900  Level Miami Center
10:57AM 29.5531 -81.2756 151° Southeast 468 539 37,900  Level Miami Center
10:58AM 29.4386 -81.2017 151° Southeast 473 544 37,900  Level Miami Center
10:59AM 29.3361 -81.1383 152° Southeast 473 544 37,900  Level Miami Center
11:00AM 29.2328 -81.0392 140° Southeast 478 550 37,900  Level Miami Center
11:01AM 29.1336 -80.9333 137° Southeast 483 556 37,900  Level Miami Center
11:02AM 29.0367 -80.8253 136° Southeast 483 556 37,900  Level Miami Center
11:03AM 28.9272 -80.7050 136° Southeast 488 562 37,900  Level Miami Center
11:04AM 28.8342 -80.5906 133° Southeast 488 562 37,900  Level Miami Center
11:05AM 28.7519 -80.4647 127° Southeast 493 567 37,900  Level Miami Center
11:06AM 28.6739 -80.3319 124° Southeast 500 575 37,900  Level Miami Center
11:07AM 28.6058 -80.2142 123° Southeast 505 581 38,000  Climbing Miami Center
11:08AM 28.5253 -80.0817 125° Southeast 499 574 37,900 -60 Descending Miami Center
11:09AM 28.4367 -79.9375 125° Southeast 504 580 37,900  Level Miami Center
11:10AM 28.3539 -79.8056 125° Southeast 504 580 37,900  Level Miami Center
11:11AM 28.2731 -79.6714 124° Southeast 510 587 37,900  Level Miami Center
11:12AM 28.1922 -79.5375 124° Southeast 510 587 37,900  Level Miami Center
11:13AM 28.1111 -79.4036 124° Southeast 510 587 37,900  Level Miami Center
11:14AM 28.0278 -79.2725 126° Southeast 515 593 37,900  Level Miami Center
11:15AM 27.9464 -79.1392 125° Southeast 515 593 37,900 240 Level Miami Center
11:16AM 27.8669 -79.0083 124° Southeast 520 598 38,400 480 Climbing Miami Center
11:17AM 27.7917 -78.8847 125° Southeast 520 598 38,900 240 Climbing Miami Center
11:18AM 27.6994 -78.7400 126° Southeast 520 598 38,900  Level Miami Center
11:19AM 27.6156 -78.6050 125° Southeast 526 605 38,900  Level Miami Center
11:20AM 27.5336 -78.4656 124° Southeast 526 605 38,900  Level Miami Center
11:21AM 27.4536 -78.3286 123° Southeast 526 605 38,900  Level Miami Center
11:22AM 27.3736 -78.1897 123° Southeast 526 605 38,900  Level Miami Center
11:23AM 27.3058 -78.0697 122° Southeast 520 598 38,900  Level Miami Center
11:24AM 27.2253 -77.9333 124° Southeast 527 606 38,900  Level Miami Center
11:25AM 27.1406 -77.7947 124° Southeast 528 608 38,900  Level Miami Center
11:26AM 27.0622 -77.6542 122° Southeast 528 608 38,900  Level Miami Center
11:27AM 26.9814 -77.5139 123° Southeast 528 608 38,900  Level Miami Center
11:28AM 26.8900 -77.3619 124° Southeast 533 613 38,900  Level Miami Center
11:29AM 26.8111 -77.2311 124° Southeast 519 597 38,900  Level Miami Center
11:30AM 26.7256 -77.0889 124° Southeast 525 604 38,900  Level Miami Center
11:31AM 26.6464 -76.9564 124° Southeast 531 611 38,900  Level Miami Center
11:32AM 26.5628 -76.8214 125° Southeast 531 611 38,900  Level Miami Center
11:33AM 26.4792 -76.6822 124° Southeast 531 611 38,900  Level Miami Center
11:34AM 26.3975 -76.5456 124° Southeast 531 611 38,900  Level Miami Center
11:35AM 26.3136 -76.4089 124° Southeast 531 611 38,900  Level Miami Center
11:36AM 26.2294 -76.2750 125° Southeast 531 611 38,900  Level Miami Center
11:37AM 26.1600 -76.1572 123° Southeast 526 605 38,900  Level Miami Center
11:38AM 26.0756 -76.0211 125° Southeast 531 611 38,900  Level Miami Center
11:39AM 25.9953 -75.8853 123° Southeast 531 611 38,900  Level Miami Center
11:40AM 25.9108 -75.7475 124° Southeast 531 611 38,900  Level Miami Center
11:41AM 25.8242 -75.6119 125° Southeast 531 611 38,900  Level Miami Center
11:42AM 25.7392 -75.4769 125° Southeast 538 619 38,900  Level Miami Center
11:43AM 25.6544 -75.3417 125° Southeast 533 613 38,900  Level Miami Center
11:44AM 25.5714 -75.2069 124° Southeast 533 613 38,900  Level Miami Center
11:45AM 25.4861 -75.0700 125° Southeast 533 613 38,900  Level Miami Center
11:46AM 25.4031 -74.9331 124° Southeast 533 613 38,900  Level Miami Center
11:47AM 25.3175 -74.8011 126° Southeast 533 613 38,900  Level Miami Center
11:48AM 25.2319 -74.6647 125° Southeast 533 613 38,900  Level Miami Center
11:49AM 25.1483 -74.5333 125° Southeast 533 613 38,900  Level Miami Center
11:50AM 25.0628 -74.3972 125° Southeast 533 613 38,900  Level Miami Center
11:51AM 24.9769 -74.2661 126° Southeast 533 613 38,900  Level Miami Center
11:52AM 24.8886 -74.1306 126° Southeast 533 613 38,900  Level Miami Center
11:53AM 24.8067 -73.9972 124° Southeast 538 619 38,900  Level Miami Center
11:54AM 24.7206 -73.8619 125° Southeast 538 619 38,900  Level Miami Center
11:55AM 24.6322 -73.7292 126° Southeast 538 619 38,900  Level Miami Center
11:56AM 24.5478 -73.5989 125° Southeast 538 619 38,900  Level Miami Center
11:57AM 24.4633 -73.4619 124° Southeast 538 619 38,900  Level Miami Center
11:58AM 24.3725 -73.3275 127° Southeast 538 619 38,900  Level Miami Center
11:59AM 24.2878 -73.1956 125° Southeast 538 619 38,900  Level Miami Center
12:00PM 24.2008 -73.0614 125° Southeast 539 620 38,900  Level Miami Center
12:01PM 24.1139 -72.9300 126° Southeast 534 615 38,900  Level Miami Center
12:02PM 24.0247 -72.7986 127° Southeast 539 620 38,900  Level Miami Center
12:03PM 23.9375 -72.6672 126° Southeast 539 620 38,900  Level Miami Center
12:04PM 23.8500 -72.5339 126° Southeast 539 620 38,900  Level Miami Center
12:05PM 23.7669 -72.4006 124° Southeast 539 620 38,900  Level Miami Center
12:06PM 23.6794 -72.2767 128° Southeast 539 620 38,900  Level Miami Center
12:07PM 23.5958 -72.1347 123° Southeast 540 621 38,900  Level Miami Center
12:08PM 23.5061 -72.0092 128° Southeast 540 621 38,900  Level Miami Center
12:09PM 23.4183 -71.8789 126° Southeast 540 621 38,900  Level Miami Center
12:10PM 23.3306 -71.7511 127° Southeast 540 621 38,900  Level Miami Center
12:11PM 23.2467 -71.6214 125° Southeast 540 621 38,900  Level Miami Center
12:12PM 23.1519 -71.4808 126° Southeast 535 616 38,900  Level Miami Center
12:13PM 23.0619 -71.3536 128° Southeast 535 616 38,900  Level Miami Center
12:14PM 22.9778 -71.2264 126° Southeast 535 616 38,900  Level Miami Center
12:15PM 22.8917 -71.0997 126° Southeast 530 610 38,900  Level Miami Center
12:16PM 22.8056 -70.9753 127° Southeast 525 604 38,900  Level Miami Center
12:17PM 22.7169 -70.8467 127° Southeast 525 604 38,900  Level Miami Center
12:18PM 22.6303 -70.7156 126° Southeast 525 604 38,900  Level Miami Center
12:19PM 22.5439 -70.5917 127° Southeast 525 604 38,900  Level Miami Center
12:20PM 22.4594 -70.4678 126° Southeast 525 604 38,900  Level Miami Center
12:21PM 22.3725 -70.3375 126° Southeast 525 604 38,900  Level Miami Center
12:22PM 22.2836 -70.2119 127° Southeast 530 610 38,900  Level Miami Center
12:23PM 22.1989 -70.0908 127° Southeast 530 610 38,900  Level Miami Center
12:24PM 22.1119 -69.9633 126° Southeast 530 610 38,900  Level Miami Center
12:25PM 22.0250 -69.8383 127° Southeast 530 610 38,900  Level Miami Center
12:26PM 21.9378 -69.7133 127° Southeast 530 610 38,900  Level Miami Center
12:27PM 21.8547 -69.5883 126° Southeast 525 604 38,900  Level Miami Center
12:28PM 21.7653 -69.4636 128° Southeast 525 604 38,900  Level Miami Center
12:29PM 21.6822 -69.3411 126° Southeast 525 604 38,900  Level Miami Center
12:30PM 21.5972 -69.2233 128° Southeast 518 596 38,900  Level Miami Center
12:31PM 21.5097 -69.1014 128° Southeast 513 590 38,900  Level Miami Center
12:32PM 21.4225 -68.9797 128° Southeast 513 590 38,900  Level Miami Center
12:33PM 21.3328 -68.8606 129° Southeast 513 590 38,900  Level Miami Center
12:34PM 21.2578 -68.7406 124° Southeast 508 585 38,900  Level Miami Center
12:35PM 21.1703 -68.6214 128° Southeast 508 585 38,900  Level Miami Center
12:36PM 21.1069 -68.5278 126° Southeast 508 585 38,900  Level Miami Center
12:37PM 21.0147 -68.4003 128° Southeast 502 578 38,900  Level Miami Center
12:38PM 20.9289 -68.2817 128° Southeast 502 578 38,900  Level Miami Center
12:39PM 20.8414 -68.1675 129° Southeast 502 578 38,900  Level Miami Center
12:40PM 20.7475 -68.0542 132° Southeast 507 583 38,900  Level Miami Center
12:41PM 20.6658 -67.9356 126° Southeast 507 583 38,900  Level Miami Center
12:42PM 20.5761 -67.8222 130° Southeast 501 577 38,900  Level Miami Center
12:43PM 20.4925 -67.7083 128° Southeast 501 577 38,900  Level Miami Center
12:44PM 20.4108 -67.5947 127° Southeast 496 571 38,900  Level Miami Center
12:45PM 20.2833 -67.4500 133° Southeast 490 564 39,000  Climbing San Juan Center
12:46PM 20.2000 -67.3333 127° Southeast 500 575 39,000 -60 Level San Juan Center
12:47PM 20.1000 -67.2167 132° Southeast 500 575 38,900 -300 Descending San Juan Center
12:48PM 20.0167 -67.1000 127° Southeast 490 564 38,500 -900 Descending San Juan Center
12:49PM 19.9333 -66.9833 127° Southeast 500 575 37,200 -1,200 Descending San Juan Center
12:50PM 19.8500 -66.8667 127° Southeast 510 587 36,100 -1,020 Descending San Juan Center
12:51PM 19.7500 -66.7500 132° Southeast 510 587 35,200 -900 Descending San Juan Center
12:52PM 19.6667 -66.6333 127° Southeast 500 575 34,300 -1,020 Descending San Juan Center
12:53PM 19.5667 -66.5167 132° Southeast 510 587 33,200 -1,080 Descending San Juan Center
12:54PM 19.4833 -66.4000 127° Southeast 510 587 32,200 -1,200 Descending San Juan Center
12:55PM 19.4000 -66.2833 127° Southeast 500 575 30,800 -2,340 Descending San Juan Center
12:56PM 19.3000 -66.1667 132° Southeast 500 575 27,500 -3,060 Descending San Juan Center
12:57PM 19.2167 -66.0667 131° Southeast 500 575 24,700 -2,700 Descending San Juan Center
12:58PM 19.1333 -65.9500 127° Southeast 480 552 22,100 -2,580 Descending San Juan Center
12:59PM 19.0333 -65.8333 132° Southeast 460 529 19,600 -2,460 Descending San Juan Center
01:00PM 18.9667 -65.7167 121° Southeast 430 495 17,200 -2,340 Descending San Juan Center
01:01PM 18.8833 -65.6333 137° Southeast 420 483 15,000 -2,220 Descending San Juan Center
01:02PM 18.8000 -65.5500 137° Southeast 400 460 12,800 -2,280 Descending San Juan Center
01:03PM 18.7167 -65.4833 143° Southeast 380 437 10,500 -1,980 Descending San Juan Center
01:04PM 18.6333 -65.4167 143° Southeast 360 414 8,900 -1,200 Descending San Juan Center
01:05PM 18.5667 -65.3667 145° Southeast 320 368 8,100 -780 Descending San Juan Center
01:06PM 18.5000 -65.3167 145° Southeast 280 322 7,400 -960 Descending San Juan Center
01:07PM 18.4333 -65.2667 145° Southeast 260 299 6,200 -1,740 Descending San Juan Center
01:08PM 18.3833 -65.2167 136° Southeast 260 299 4,000 -1,560 Descending San Juan Center
01:09PM 18.3333 -65.1667 136° Southeast 250 288 3,100 -840 Descending San Juan Center
01:10PM 18.3167 -65.1000 105° East 210 242 2,400 -900 Descending San Juan Center
01:11PM 18.3333 -65.0500 71° East 170 196 1,300 -900 Descending San Juan Center
01:12PM 18.3333 -65.0000 90° East 150 173 600 -720 Descending San Juan Center